createdAt,value
2019-05-09T00:01:23.737Z,5.80
2019-05-09T00:03:54.318Z,6.25
2019-05-09T00:06:23.965Z,7.43
2019-05-09T00:08:53.347Z,5.33
2019-05-09T00:11:24.423Z,2.60
2019-05-09T00:13:53.841Z,8.23
2019-05-09T00:16:23.635Z,4.20
2019-05-09T00:18:54.066Z,6.30
2019-05-09T00:21:28.707Z,3.83
2019-05-09T00:23:57.588Z,5.45
2019-05-09T00:26:26.466Z,7.10
2019-05-09T00:28:56.905Z,7.12
2019-05-09T00:31:36.357Z,3.27
2019-05-09T00:34:25.125Z,6.90
2019-05-09T00:36:54.086Z,9.05
2019-05-09T00:39:23.648Z,6.33
2019-05-09T00:41:53.908Z,6.45
2019-05-09T00:44:30.661Z,7.53
2019-05-09T00:47:10.055Z,5.53
2019-05-09T00:49:39.353Z,6.35
2019-05-09T00:52:08.239Z,6.65
2019-05-09T00:54:37.151Z,5.37
2019-05-09T00:57:06.074Z,4.58
2019-05-09T00:59:34.914Z,6.53
2019-05-09T01:02:04.105Z,5.85
2019-05-09T01:04:33.444Z,7.83
2019-05-09T01:07:03.412Z,5.22
2019-05-09T01:09:33.383Z,7.78
2019-05-09T01:12:04.135Z,6.12
2019-05-09T01:14:33.971Z,6.57
2019-05-09T01:17:04.213Z,5.33
2019-05-09T01:19:33.916Z,6.55
2019-05-09T01:22:03.711Z,10.58
2019-05-09T01:24:33.830Z,8.80
2019-05-09T01:27:03.577Z,11.18
2019-05-09T01:29:33.754Z,8.98
2019-05-09T01:32:05.067Z,9.30
2019-05-09T01:34:35.652Z,7.25
2019-05-09T01:37:05.355Z,11.85
2019-05-09T01:39:35.546Z,6.78
2019-05-09T01:42:04.495Z,8.88
2019-05-09T01:44:33.636Z,7.78
2019-05-09T01:47:03.698Z,8.75
2019-05-09T01:49:34.124Z,8.28
2019-05-09T01:52:03.668Z,9.43
2019-05-09T01:54:34.438Z,8.20
2019-05-09T01:57:03.600Z,8.47
2019-05-09T01:59:33.973Z,9.15
2019-05-09T02:02:08.176Z,8.60
2019-05-09T02:04:34.245Z,16.42
2019-05-09T02:07:04.081Z,11.57
2019-05-09T02:09:34.292Z,9.00
2019-05-09T02:12:03.980Z,6.03
2019-05-09T02:14:34.885Z,9.10
2019-05-09T02:17:17.449Z,9.55
2019-05-09T02:19:47.602Z,8.93
2019-05-09T02:22:35.490Z,8.35
2019-05-09T02:25:06.679Z,7.28
2019-05-09T02:27:35.793Z,8.13
2019-05-09T02:30:07.052Z,10.78
2019-05-09T02:32:36.848Z,9.10
2019-05-09T02:35:10.074Z,8.90
2019-05-09T02:37:39.291Z,13.30
2019-05-09T02:40:09.685Z,12.93
2019-05-09T02:42:39.932Z,11.15
2019-05-09T02:45:10.333Z,7.67
2019-05-09T02:47:39.329Z,10.60
2019-05-09T02:50:09.772Z,9.13
2019-05-09T02:52:39.890Z,10.23
2019-05-09T02:55:10.515Z,8.30
2019-05-09T02:57:39.761Z,10.03
2019-05-09T03:00:10.461Z,16.40
2019-05-09T03:02:59.653Z,11.83
2019-05-09T03:05:29.590Z,9.63
2019-05-09T03:07:58.612Z,10.93
2019-05-09T03:10:29.227Z,9.38
2019-05-09T03:12:59.350Z,11.22
2019-05-09T03:15:29.338Z,12.10
2019-05-09T03:17:59.904Z,11.85
2019-05-09T03:20:49.421Z,12.93
2019-05-09T03:23:19.262Z,10.15
2019-05-09T03:25:48.631Z,12.35
2019-05-09T03:28:31.388Z,15.43
2019-05-09T03:31:01.864Z,12.05
2019-05-09T03:33:35.239Z,13.85
2019-05-09T03:36:01.338Z,15.65
2019-05-09T03:38:30.214Z,12.63
2019-05-09T03:40:59.100Z,14.13
2019-05-09T03:43:27.995Z,13.78
2019-05-09T03:46:01.388Z,16.17
2019-05-09T03:48:34.735Z,13.05
2019-05-09T03:51:03.670Z,12.85
2019-05-09T03:53:32.562Z,18.98
2019-05-09T03:56:03.175Z,14.70
2019-05-09T03:58:32.064Z,14.07
2019-05-09T04:01:00.946Z,15.32
2019-05-09T04:03:29.867Z,14.90
2019-05-09T04:06:02.882Z,15.48
2019-05-09T04:08:29.370Z,12.05
2019-05-09T04:10:58.819Z,15.43
2019-05-09T04:13:29.329Z,15.45
2019-05-09T04:15:58.396Z,16.48
2019-05-09T04:18:27.780Z,19.27
2019-05-09T04:20:57.333Z,15.38
2019-05-09T04:23:27.530Z,17.05
2019-05-09T04:26:04.261Z,15.20
2019-05-09T04:28:33.165Z,14.47
2019-05-09T04:31:02.044Z,18.15
2019-05-09T04:33:30.852Z,15.90
2019-05-09T04:35:59.754Z,16.25
2019-05-09T04:38:28.687Z,22.55
2019-05-09T04:40:58.370Z,18.98
2019-05-09T04:43:35.446Z,17.82
2019-05-09T04:45:59.544Z,17.67
2019-05-09T04:48:32.796Z,18.12
2019-05-09T04:51:03.451Z,14.80
2019-05-09T04:53:33.381Z,19.03
2019-05-09T04:56:17.572Z,17.62
2019-05-09T04:58:48.203Z,20.02
2019-05-09T05:01:35.375Z,18.97
2019-05-09T05:04:04.291Z,22.37
2019-05-09T05:06:33.172Z,20.80
2019-05-09T05:09:02.098Z,18.65
2019-05-09T05:11:31.075Z,16.05
2019-05-09T05:13:59.921Z,18.07
2019-05-09T05:16:28.827Z,17.87
2019-05-09T05:18:58.394Z,19.05
2019-05-09T05:21:28.425Z,16.70
2019-05-09T05:23:59.226Z,16.42
2019-05-09T05:26:29.019Z,16.90
2019-05-09T05:28:58.180Z,17.92
2019-05-09T05:31:28.544Z,18.87
2019-05-09T05:34:08.149Z,18.02
2019-05-09T05:36:38.244Z,16.55
2019-05-09T05:39:08.365Z,16.45
2019-05-09T05:41:37.906Z,23.60
2019-05-09T05:44:08.500Z,15.98
2019-05-09T05:46:50.726Z,22.47
2019-05-09T05:49:18.737Z,15.28
2019-05-09T05:51:50.399Z,18.12
2019-05-09T05:56:47.947Z,18.80
2019-05-09T05:59:17.953Z,18.17
2019-05-09T06:01:47.734Z,18.10
2019-05-09T06:04:18.586Z,15.60
2019-05-09T06:06:48.097Z,17.35
2019-05-09T06:09:18.938Z,19.50
2019-05-09T06:11:48.632Z,15.95
2019-05-09T06:14:18.608Z,18.15
2019-05-09T06:16:48.622Z,19.07
2019-05-09T06:19:18.178Z,20.15
2019-05-09T06:21:48.472Z,11.97
2019-05-09T06:24:17.981Z,14.77
2019-05-09T06:26:47.870Z,15.90
2019-05-09T06:29:17.852Z,15.40
2019-05-09T06:31:48.439Z,13.65
2019-05-09T06:34:18.834Z,14.50
2019-05-09T06:36:48.877Z,14.63
2019-05-09T06:39:18.422Z,14.60
2019-05-09T06:41:48.392Z,19.02
2019-05-09T06:44:25.074Z,13.85
2019-05-09T06:46:58.825Z,16.07
2019-05-09T06:49:31.936Z,19.50
2019-05-09T06:51:59.865Z,15.85
2019-05-09T06:54:28.720Z,15.00
2019-05-09T06:56:58.440Z,18.32
2019-05-09T06:59:28.329Z,15.40
2019-05-09T07:01:59.034Z,13.00
2019-05-09T07:04:41.495Z,12.78
2019-05-09T07:07:24.219Z,15.55
2019-05-09T07:09:54.668Z,15.05
2019-05-09T07:12:23.538Z,15.65
2019-05-09T07:14:52.491Z,19.92
2019-05-09T07:17:21.334Z,16.60
2019-05-09T07:19:50.244Z,17.35
2019-05-09T07:22:28.019Z,13.15
2019-05-09T07:25:11.356Z,17.15
2019-05-09T07:27:41.970Z,15.83
2019-05-09T07:30:29.564Z,14.00
2019-05-09T07:33:18.853Z,15.43
2019-05-09T07:35:47.599Z,16.05
2019-05-09T07:38:18.280Z,14.65
2019-05-09T07:40:47.835Z,13.93
2019-05-09T07:43:17.992Z,16.75
2019-05-09T07:46:08.747Z,14.05
2019-05-09T07:48:38.586Z,15.90
2019-05-09T07:51:08.007Z,18.00
2019-05-09T07:53:38.006Z,17.10
2019-05-09T07:56:07.981Z,15.90
2019-05-09T07:58:37.743Z,15.53
2019-05-09T08:01:08.499Z,16.55
2019-05-09T08:03:38.417Z,14.10
2019-05-09T08:06:08.801Z,15.08
2019-05-09T08:08:38.562Z,21.30
2019-05-09T08:11:08.860Z,12.50
2019-05-09T08:13:39.253Z,16.23
2019-05-09T08:16:14.136Z,11.68
2019-05-09T08:18:39.596Z,13.45
2019-05-09T08:21:08.665Z,13.85
2019-05-09T08:23:38.142Z,12.88
2019-05-09T08:26:08.810Z,15.15
2019-05-09T08:28:38.968Z,19.10
2019-05-09T08:31:08.555Z,12.93
2019-05-09T08:33:38.287Z,16.07
2019-05-09T08:36:08.657Z,14.30
2019-05-09T08:38:39.167Z,14.73
2019-05-09T08:41:12.157Z,12.28
2019-05-09T08:43:41.495Z,13.88
2019-05-09T08:46:10.738Z,12.55
2019-05-09T08:48:39.619Z,12.53
2019-05-09T08:51:18.033Z,14.98
2019-05-09T08:53:48.172Z,17.15
2019-05-09T08:56:17.811Z,14.43
2019-05-09T08:58:48.519Z,16.73
2019-05-09T09:01:28.817Z,13.10
2019-05-09T09:03:48.499Z,11.15
2019-05-09T09:06:18.336Z,11.78
2019-05-09T09:08:48.334Z,13.93
2019-05-09T09:11:18.720Z,14.98
2019-05-09T09:13:48.371Z,12.95
2019-05-09T09:16:21.668Z,12.28
2019-05-09T09:18:48.276Z,11.95
2019-05-09T09:21:18.290Z,13.45
2019-05-09T09:23:50.672Z,13.28
2019-05-09T09:26:18.454Z,13.08
2019-05-09T09:28:48.480Z,16.90
2019-05-09T09:31:18.097Z,13.78
2019-05-09T09:33:48.037Z,14.33
2019-05-09T09:36:17.841Z,13.70
2019-05-09T09:38:48.050Z,12.98
2019-05-09T09:41:18.221Z,13.25
2019-05-09T09:43:47.763Z,14.68
2019-05-09T09:46:18.189Z,15.65
2019-05-09T09:48:48.031Z,13.78
2019-05-09T09:51:18.582Z,14.23
2019-05-09T09:53:48.971Z,14.20
2019-05-09T09:56:22.117Z,13.03
2019-05-09T09:58:50.125Z,13.38
2019-05-09T10:01:23.103Z,16.15
2019-05-09T10:03:53.564Z,14.53
2019-05-09T10:06:22.406Z,14.03
2019-05-09T10:08:51.353Z,12.53
2019-05-09T10:11:20.225Z,16.48
2019-05-09T10:13:51.862Z,15.32
2019-05-09T10:16:33.188Z,13.20
2019-05-09T10:19:08.307Z,14.83
2019-05-09T10:21:38.541Z,17.42
2019-05-09T10:24:07.951Z,12.05
2019-05-09T10:26:39.086Z,13.50
2019-05-09T10:29:08.119Z,15.60
2019-05-09T10:31:39.239Z,13.45
2019-05-09T10:34:10.706Z,13.72
2019-05-09T10:36:38.555Z,18.60
2019-05-09T10:39:08.322Z,12.70
2019-05-09T10:41:37.676Z,13.28
2019-05-09T10:44:11.167Z,14.75
2019-05-09T10:46:56.456Z,14.98
2019-05-09T10:49:18.173Z,14.43
2019-05-09T10:51:48.547Z,15.15
2019-05-09T10:54:18.545Z,11.40
2019-05-09T10:56:48.754Z,15.80
2019-05-09T10:59:18.398Z,14.50
2019-05-09T11:01:49.434Z,13.75
2019-05-09T11:04:18.115Z,18.15
2019-05-09T11:06:47.020Z,11.55
2019-05-09T11:09:18.211Z,15.53
2019-05-09T11:11:48.447Z,13.68
2019-05-09T11:14:32.128Z,12.80
2019-05-09T11:16:54.286Z,15.77
2019-05-09T11:19:18.740Z,14.60
2019-05-09T11:21:47.918Z,15.58
2019-05-09T11:24:18.831Z,14.93
2019-05-09T11:26:48.091Z,16.32
2019-05-09T11:29:18.743Z,12.70
2019-05-09T11:31:47.925Z,12.90
2019-05-09T11:34:18.904Z,15.10
2019-05-09T11:36:49.645Z,13.78
2019-05-09T11:39:35.291Z,14.90
2019-05-09T11:41:48.862Z,11.73
2019-05-09T11:44:18.529Z,14.75
2019-05-09T11:46:47.802Z,15.35
2019-05-09T11:49:18.033Z,10.85
2019-05-09T11:51:48.234Z,13.83
2019-05-09T11:54:19.455Z,11.55
2019-05-09T11:56:48.255Z,10.97
2019-05-09T11:59:18.932Z,9.58
2019-05-09T12:01:48.338Z,10.30
2019-05-09T12:04:18.691Z,10.30
2019-05-09T12:06:49.307Z,12.58
2019-05-09T12:09:18.542Z,9.18
2019-05-09T12:11:48.248Z,10.75
2019-05-09T12:14:17.468Z,9.58
2019-05-09T12:16:48.020Z,7.95
2019-05-09T12:19:17.956Z,7.60
2019-05-09T12:21:48.295Z,8.75
2019-05-09T12:24:18.401Z,8.80
2019-05-09T12:26:48.166Z,6.70
2019-05-09T12:29:19.658Z,7.80
2019-05-09T12:31:48.500Z,6.62
2019-05-09T12:34:19.283Z,6.75
2019-05-09T12:36:49.282Z,6.58
2019-05-09T12:39:19.039Z,5.95
2019-05-09T12:41:48.502Z,6.30
2019-05-09T12:44:18.420Z,7.25
2019-05-09T12:46:48.814Z,6.83
2019-05-09T12:49:18.974Z,5.30
2019-05-09T12:51:48.188Z,4.78
2019-05-09T12:54:18.990Z,5.20
2019-05-09T12:56:48.538Z,5.40
2019-05-09T12:59:18.797Z,6.67
2019-05-09T13:01:49.192Z,5.30
2019-05-09T13:04:18.487Z,6.95
2019-05-09T13:06:48.897Z,6.42
2019-05-09T13:09:18.101Z,6.77
2019-05-09T13:11:48.235Z,6.80
2019-05-09T13:14:19.401Z,6.72
2019-05-09T13:16:57.335Z,4.87
2019-05-09T13:19:27.871Z,4.92
2019-05-09T13:21:58.785Z,5.40
2019-05-09T13:24:28.364Z,5.58
2019-05-09T13:26:57.304Z,6.25
2019-05-09T13:29:26.163Z,5.22
2019-05-09T13:31:57.564Z,5.90
2019-05-09T13:34:28.199Z,4.90
2019-05-09T13:36:58.838Z,5.47
2019-05-09T13:39:27.993Z,5.70
2019-05-09T13:41:58.361Z,4.58
2019-05-09T13:44:27.847Z,6.65
2019-05-09T13:46:58.384Z,5.62
2019-05-09T13:49:28.576Z,6.53
2019-05-09T13:52:04.219Z,6.58
2019-05-09T13:54:28.525Z,4.92
2019-05-09T13:57:01.022Z,4.80
2019-05-09T13:59:30.004Z,5.73
2019-05-09T14:01:58.844Z,5.00
2019-05-09T14:04:28.585Z,5.40
2019-05-09T14:06:57.847Z,6.22
2019-05-09T14:09:29.165Z,4.75
2019-05-09T14:11:59.022Z,4.30
2019-05-09T14:14:28.188Z,4.62
2019-05-09T14:16:59.205Z,5.60
2019-05-09T14:19:39.621Z,4.22
2019-05-09T14:21:58.785Z,5.20
2019-05-09T14:24:28.092Z,5.50
2019-05-09T14:26:58.211Z,5.42
2019-05-09T14:29:31.517Z,5.22
2019-05-09T14:31:57.989Z,5.67
2019-05-09T14:34:26.909Z,4.00
2019-05-09T14:36:58.450Z,3.90
2019-05-09T14:39:27.699Z,5.03
2019-05-09T14:41:57.867Z,5.05
2019-05-09T14:44:27.695Z,4.05
2019-05-09T14:46:58.387Z,4.50
2019-05-09T14:49:39.642Z,3.73
2019-05-09T14:51:58.100Z,4.40
2019-05-09T14:54:28.987Z,4.20
2019-05-09T14:56:58.355Z,4.03
2019-05-09T14:59:28.644Z,3.52
2019-05-09T15:01:59.105Z,4.30
2019-05-09T15:04:28.259Z,7.87
2019-05-09T15:06:57.785Z,3.52
2019-05-09T15:09:28.412Z,3.52
2019-05-09T15:11:58.442Z,3.77
2019-05-09T15:14:28.924Z,3.52
2019-05-09T15:16:57.932Z,3.22
2019-05-09T15:19:28.784Z,3.60
2019-05-09T15:22:00.428Z,3.17
2019-05-09T15:24:28.844Z,2.98
2019-05-09T15:26:58.177Z,4.55
2019-05-09T15:29:28.964Z,4.37
2019-05-09T15:32:04.697Z,3.20
2019-05-09T15:34:28.663Z,3.50
2019-05-09T15:36:58.328Z,3.27
2019-05-09T15:39:27.901Z,3.80
2019-05-09T15:41:57.946Z,3.75
2019-05-09T15:44:27.021Z,6.30
2019-05-09T15:46:57.501Z,3.70
2019-05-09T15:49:28.505Z,4.05
2019-05-09T15:51:58.481Z,5.23
2019-05-09T15:54:29.426Z,3.22
2019-05-09T15:56:58.197Z,3.33
2019-05-09T15:59:28.142Z,3.50
2019-05-09T16:01:58.349Z,4.00
2019-05-09T16:04:28.057Z,4.47
2019-05-09T16:06:57.325Z,3.25
2019-05-09T16:09:28.423Z,3.35
2019-05-09T16:11:56.901Z,3.65
2019-05-09T16:14:27.683Z,4.55
2019-05-09T16:16:56.484Z,4.80
2019-05-09T16:19:25.326Z,4.70
2019-05-09T16:21:54.289Z,3.52
2019-05-09T16:24:23.130Z,4.22
2019-05-09T16:26:52.049Z,6.17
2019-05-09T16:29:20.955Z,5.42
2019-05-09T16:31:49.862Z,5.58
2019-05-09T16:34:18.776Z,3.95
2019-05-09T16:36:48.184Z,4.83
2019-05-09T16:39:18.039Z,4.20
2019-05-09T16:41:48.359Z,4.60
2019-05-09T16:44:18.367Z,5.05
2019-05-09T16:46:48.473Z,4.40
2019-05-09T16:49:19.868Z,4.37
2019-05-09T16:51:48.731Z,4.15
2019-05-09T16:54:18.251Z,4.28
2019-05-09T16:56:47.248Z,5.55
2019-05-09T16:59:17.911Z,4.70
2019-05-09T17:01:50.087Z,5.22
2019-05-09T17:04:19.087Z,7.90
2019-05-09T17:06:49.707Z,4.23
2019-05-09T17:09:19.312Z,6.12
2019-05-09T17:11:48.261Z,4.70
2019-05-09T17:14:19.282Z,5.37
2019-05-09T17:16:48.333Z,5.12
2019-05-09T17:19:19.520Z,5.10
2019-05-09T17:21:58.363Z,6.40
2019-05-09T17:24:29.582Z,4.78
2019-05-09T17:26:57.993Z,5.25
2019-05-09T17:29:28.041Z,5.62
2019-05-09T17:31:58.459Z,4.75
2019-05-09T17:34:28.687Z,6.22
2019-05-09T17:36:57.784Z,5.08
2019-05-09T17:39:27.799Z,5.87
2019-05-09T17:41:58.236Z,4.83
2019-05-09T17:44:28.097Z,4.83
2019-05-09T17:46:58.002Z,6.65
2019-05-09T17:49:28.096Z,6.42
2019-05-09T17:51:58.390Z,6.65
2019-05-09T17:54:28.895Z,5.50
2019-05-09T17:56:58.014Z,5.08
2019-05-09T17:59:29.203Z,5.80
2019-05-09T18:01:58.126Z,10.40
2019-05-09T18:04:28.750Z,5.75
2019-05-09T18:06:58.461Z,7.17
2019-05-09T18:09:28.576Z,7.45
2019-05-09T18:11:57.930Z,6.67
2019-05-09T18:14:27.905Z,6.05
2019-05-09T18:16:58.210Z,7.10
2019-05-09T18:19:29.295Z,7.22
2019-05-09T18:21:58.289Z,7.72
2019-05-09T18:24:28.778Z,8.50
2019-05-09T18:26:58.343Z,8.18
2019-05-09T18:29:27.958Z,7.67
2019-05-09T18:31:58.536Z,8.95
2019-05-09T18:34:28.649Z,11.08
2019-05-09T18:36:58.757Z,8.83
2019-05-09T18:39:28.063Z,8.70
2019-05-09T18:41:57.758Z,10.48
2019-05-09T18:44:27.576Z,9.18
2019-05-09T18:46:57.713Z,8.75
2019-05-09T18:49:26.804Z,9.35
2019-05-09T18:52:03.627Z,10.32
2019-05-09T18:54:26.877Z,9.70
2019-05-09T18:56:55.888Z,10.38
2019-05-09T18:59:24.983Z,8.80
2019-05-09T19:01:53.987Z,11.95
2019-05-09T19:04:22.884Z,8.88
2019-05-09T19:06:51.855Z,10.65
2019-05-09T19:09:20.786Z,10.53
2019-05-09T19:11:49.836Z,11.63
2019-05-09T19:14:20.474Z,12.95
2019-05-09T19:16:54.082Z,10.95
2019-05-09T19:19:24.593Z,11.43
2019-05-09T19:22:04.973Z,13.53
2019-05-09T19:24:31.618Z,14.33
2019-05-09T19:27:00.539Z,11.38
2019-05-09T19:29:29.486Z,17.00
2019-05-09T19:31:58.420Z,11.88
2019-05-09T19:34:27.412Z,13.93
2019-05-09T19:36:56.292Z,13.38
2019-05-09T19:39:25.216Z,12.10
2019-05-09T19:41:54.227Z,12.53
2019-05-09T19:44:23.195Z,14.38
2019-05-09T19:46:52.086Z,14.98
2019-05-09T19:49:21.071Z,15.10
2019-05-09T19:51:49.985Z,14.78
2019-05-09T19:54:18.927Z,14.30
2019-05-09T19:56:47.860Z,14.93
2019-05-09T19:59:16.825Z,15.45
2019-05-09T20:01:46.715Z,16.95
2019-05-09T20:04:15.768Z,13.30
2019-05-09T20:06:44.625Z,16.07
2019-05-09T20:09:15.107Z,15.60
2019-05-09T20:11:51.315Z,13.43
2019-05-09T20:14:24.227Z,14.55
2019-05-09T20:16:55.848Z,12.90
2019-05-09T20:19:24.945Z,12.43
2019-05-09T20:21:53.849Z,13.90
2019-05-09T20:24:22.821Z,17.35
2019-05-09T20:26:51.729Z,17.12
2019-05-09T20:29:20.660Z,14.05
2019-05-09T20:31:49.703Z,17.12
2019-05-09T20:34:18.777Z,16.00
2019-05-09T20:36:47.919Z,15.50
2019-05-09T20:39:17.166Z,17.52
2019-05-09T20:41:46.311Z,14.98
2019-05-09T20:44:15.358Z,16.77
2019-05-09T20:46:44.483Z,16.57
2019-05-09T20:49:13.613Z,16.93
2019-05-09T20:51:43.047Z,18.23
2019-05-09T20:54:20.462Z,19.80
2019-05-09T20:56:42.994Z,16.57
2019-05-09T20:59:12.098Z,16.02
2019-05-09T21:01:41.255Z,17.00
2019-05-09T21:04:10.355Z,15.90
2019-05-09T21:06:39.503Z,14.47
2019-05-09T21:09:08.678Z,14.07
2019-05-09T21:11:37.764Z,17.17
2019-05-09T21:14:06.914Z,18.02
2019-05-09T21:16:35.999Z,13.80
2019-05-09T21:19:05.296Z,16.90
2019-05-09T21:21:34.383Z,19.65
2019-05-09T21:24:03.472Z,16.25
2019-05-09T21:26:32.765Z,17.20
2019-05-09T21:29:01.903Z,20.20
2019-05-09T21:31:30.934Z,18.87
2019-05-09T21:34:00.050Z,16.52
2019-05-09T21:36:29.361Z,14.03
2019-05-09T21:38:58.384Z,16.93
2019-05-09T21:41:27.372Z,14.98
2019-05-09T21:43:56.346Z,15.53
2019-05-09T21:46:25.342Z,13.98
2019-05-09T21:48:54.239Z,14.33
2019-05-09T21:51:23.253Z,16.05
2019-05-09T21:53:52.417Z,11.50
2019-05-09T21:56:21.272Z,16.50
2019-05-09T21:58:52.094Z,14.75
2019-05-09T22:01:25.994Z,23.77
2019-05-09T22:04:08.108Z,18.42
2019-05-09T22:06:37.057Z,19.00
2019-05-09T22:09:09.601Z,20.08
2019-05-09T22:11:38.870Z,23.90
2019-05-09T22:14:33.530Z,21.25
2019-05-09T22:17:19.926Z,17.60
2019-05-09T22:20:06.833Z,21.25
2019-05-09T22:22:35.944Z,18.05
2019-05-09T22:25:09.222Z,19.62
2019-05-09T22:27:38.080Z,18.98
2019-05-09T22:30:10.607Z,20.05
2019-05-09T22:32:39.508Z,21.65
2019-05-09T22:35:09.187Z,18.77
2019-05-09T22:37:38.243Z,20.55
2019-05-09T22:40:10.919Z,21.05
2019-05-09T22:42:39.849Z,20.02
2019-05-09T22:45:10.504Z,19.05
2019-05-09T22:47:39.356Z,17.98
2019-05-09T22:50:08.499Z,17.95
2019-05-09T22:52:37.437Z,22.45
2019-05-09T22:55:06.931Z,21.17
2019-05-09T22:57:35.814Z,23.40
2019-05-09T23:00:06.390Z,21.25
2019-05-09T23:02:35.265Z,22.75
2019-05-09T23:05:04.550Z,21.48
2019-05-09T23:07:33.495Z,28.02
2019-05-09T23:10:02.413Z,23.92
2019-05-09T23:12:31.357Z,22.17
2019-05-09T23:15:00.247Z,19.62
2019-05-09T23:17:29.182Z,19.45
2019-05-09T23:19:58.143Z,23.62
2019-05-09T23:22:28.566Z,21.75
2019-05-09T23:24:57.496Z,21.52
2019-05-09T23:27:26.409Z,22.70
2019-05-09T23:29:55.302Z,16.77
2019-05-09T23:32:28.207Z,22.17
2019-05-09T23:34:57.138Z,18.90
2019-05-09T23:37:26.057Z,19.45
2019-05-09T23:39:56.739Z,22.75
2019-05-09T23:42:27.324Z,23.20
2019-05-09T23:44:56.220Z,22.80
2019-05-09T23:47:25.239Z,21.55
2019-05-09T23:49:54.083Z,23.07
2019-05-09T23:52:24.823Z,25.37
2019-05-09T23:55:11.855Z,24.80
2019-05-09T23:57:58.619Z,20.45
